Madison Heights, VA (24572)

6:00 AM EDT on August 27, 2016 (GMT -0400)
Concord Turnpike | | Change Station

Elev 543 ft 37.40 °N, 79.11 °W | Updated 18 seconds ago

Clear
Clear
72.8 °F
Feels Like 70 °F
N
1.1
Wind Variable Wind from SSW
Gusts 1.5 mph

Today
High -- | Low -- °F
--% Chance of Precip.
Yesterday
High -- | Low -- °F
Precip. -- in
Pressure 30.12 in
Visibility 10.0 miles
Clouds Clear
Heat Index 70 °F
Dew Point 70 °F
Humidity 90%
Rainfall 0.00 in
Snow Depth Not available.
6:43 AM 7:51 PM
Waning Crescent, 26% visible
METAR KLYH 270954Z AUTO 36004KT 10SM CLR 22/22 A3016 RMK AO2 SLP200 T02220217
Pressure 30.12 in
Visibility 10.0 miles
Clouds Clear
Heat Index 70 °F
Dew Point 70 °F
Humidity 90%
Rainfall 0.00 in
Snow Depth Not available.
6:43 AM 7:51 PM
Waning Crescent, 26% visible
METAR KLYH 270954Z AUTO 36004KT 10SM CLR 22/22 A3016 RMK AO2 SLP200 T02220217

10-Day Weather Forecast

Almanac

Astronomy

Aug. 27, 2016 Rise Set
Actual Time
Civil Twilight
Nautical Twilight
Astronomical Twilight
Moon
Length of Visible Light
Length of Day
Tomorrow will be .
, % of the Moon is Illuminated

Today's Extremes

State Highs State Lows

Community

WunderPhotos

Upload Photos

1,935,313 photos uploaded!

WunderBlog® & News

Nearby

Air Quality

  Air Quality AQ Index Pollutant
Not available.

Snow Depth

Station Depth Elevation

Earthquake Activity

City Distance Mag. Time & Date
Minimum magnitude displayed is 2.5.

Coastal Water Temperatures

Place Temperature

Stations

Nearby Weather Stations

Station Location Temp. Windchill Dew Point Humidity Wind Precip. Elev Updated Type
                   

Watches & Warnings

There are currently no watches in effect.